createdAt,value
2022-09-09T00:00:57.069Z,77.68
2022-09-09T00:03:28.745Z,77.04
2022-09-09T00:07:13.694Z,77.20
2022-09-09T00:09:51.360Z,76.75
2022-09-09T00:12:27.719Z,76.62
2022-09-09T00:15:07.125Z,77.28
2022-09-09T00:17:44.527Z,75.67
2022-09-09T00:20:46.668Z,77.36
2022-09-09T00:23:41.082Z,75.81
2022-09-09T00:27:02.851Z,75.13
2022-09-09T00:29:55.835Z,75.60
2022-09-09T00:32:38.168Z,74.05
2022-09-09T00:35:30.906Z,72.45
2022-09-09T00:38:39.156Z,71.63
2022-09-09T00:41:19.965Z,72.24
2022-09-09T00:44:15.147Z,71.63
2022-09-09T00:47:32.373Z,73.70
2022-09-09T00:50:07.836Z,74.14
2022-09-09T00:53:26.973Z,73.44
2022-09-09T00:56:19.977Z,75.17
2022-09-09T01:00:04.204Z,76.03
2022-09-09T01:02:53.922Z,76.99
2022-09-09T01:09:41.626Z,78.84
2022-09-09T01:12:33.014Z,77.24
2022-09-09T01:15:19.034Z,78.72
2022-09-09T01:18:11.211Z,79.40
2022-09-09T01:25:20.729Z,80.54
2022-09-09T01:28:25.304Z,92.80
2022-09-09T01:31:02.448Z,91.51
2022-09-09T01:33:36.272Z,90.31
2022-09-09T01:36:14.104Z,89.42
2022-09-09T01:38:48.501Z,89.06
2022-09-09T01:41:17.043Z,89.82
2022-09-09T01:44:30.977Z,91.08
2022-09-09T01:47:08.933Z,90.31
2022-09-09T01:49:49.087Z,89.56
2022-09-09T01:52:52.635Z,88.06
2022-09-09T01:55:40.833Z,87.99
2022-09-09T01:58:33.150Z,88.93
2022-09-09T02:01:16.880Z,88.50
2022-09-09T02:04:19.477Z,87.52
2022-09-09T02:07:38.815Z,86.79
2022-09-09T02:10:21.062Z,88.13
2022-09-09T02:13:24.152Z,88.83
2022-09-09T02:16:05.251Z,88.44
2022-09-09T02:19:47.658Z,86.94
2022-09-09T02:22:57.169Z,85.89
2022-09-09T02:25:30.542Z,84.72
2022-09-09T02:28:59.076Z,86.03
2022-09-09T02:31:31.160Z,85.96
2022-09-09T02:34:06.702Z,87.82
2022-09-09T02:36:39.156Z,87.74
2022-09-09T02:39:10.503Z,87.88
2022-09-09T02:42:52.812Z,88.16
2022-09-09T02:45:30.732Z,87.70
2022-09-09T02:48:16.038Z,86.77
2022-09-09T02:51:01.841Z,86.32
2022-09-09T02:53:47.838Z,87.70
2022-09-09T02:56:19.595Z,87.17
2022-09-09T02:58:53.019Z,87.23
2022-09-09T03:01:21.843Z,87.32
2022-09-09T03:03:49.627Z,89.55
2022-09-09T03:06:26.775Z,90.80
2022-09-09T03:09:03.915Z,89.06
2022-09-09T03:11:31.814Z,88.04
2022-09-09T03:13:59.502Z,87.76
2022-09-09T03:16:30.097Z,87.30
2022-09-09T03:19:04.089Z,87.42
2022-09-09T03:21:32.926Z,89.56
2022-09-09T03:28:34.462Z,89.99
2022-09-09T03:31:09.437Z,91.34
2022-09-09T03:33:46.435Z,90.92
2022-09-09T03:36:27.393Z,90.93
2022-09-09T03:38:57.842Z,92.58
2022-09-09T03:41:28.336Z,92.54
2022-09-09T03:44:02.219Z,93.20
2022-09-09T03:46:37.019Z,90.87
2022-09-09T03:49:16.169Z,91.23
2022-09-09T03:52:41.451Z,90.56
2022-09-09T03:55:18.830Z,90.62
2022-09-09T03:57:51.568Z,90.50
2022-09-09T04:03:39.964Z,91.73
2022-09-09T04:06:18.231Z,92.49
2022-09-09T04:08:49.969Z,92.08
2022-09-09T04:11:22.169Z,92.38
2022-09-09T04:15:04.578Z,93.77
2022-09-09T04:17:34.014Z,92.22
2022-09-09T04:23:50.956Z,92.25
2022-09-09T04:26:21.766Z,91.13
2022-09-09T04:28:51.798Z,92.56
2022-09-09T04:31:28.205Z,93.76
2022-09-09T04:35:21.361Z,92.87
2022-09-09T04:38:13.986Z,91.33
2022-09-09T04:40:50.469Z,93.84
2022-09-09T04:43:27.807Z,93.97
2022-09-09T04:45:57.089Z,93.98
2022-09-09T04:49:44.740Z,94.68
2022-09-09T04:52:12.600Z,95.37
2022-09-09T04:54:40.253Z,95.35
2022-09-09T04:57:37.677Z,96.09
2022-09-09T05:00:07.128Z,95.88
2022-09-09T05:03:44.118Z,94.78
2022-09-09T05:06:41.131Z,95.57
2022-09-09T05:09:10.985Z,96.11
2022-09-09T05:11:39.322Z,94.97
2022-09-09T05:14:51.458Z,94.02
2022-09-09T05:17:30.033Z,94.37
2022-09-09T05:20:09.070Z,94.24
2022-09-09T05:22:56.389Z,94.56
2022-09-09T05:25:42.134Z,93.35
2022-09-09T06:23:42.388Z,83.27
2022-09-09T06:26:44.025Z,85.18
2022-09-09T06:29:23.164Z,82.56
2022-09-09T06:32:05.161Z,83.70
2022-09-09T06:35:25.746Z,81.10
2022-09-09T06:38:37.141Z,81.32
2022-09-09T06:41:10.946Z,78.76
2022-09-09T06:43:42.106Z,77.92
2022-09-09T06:46:15.636Z,77.45
2022-09-09T06:48:46.801Z,78.00
2022-09-09T06:51:56.067Z,76.65
2022-09-09T06:54:27.303Z,73.38
2022-09-09T06:57:59.152Z,72.21
2022-09-09T07:16:28.637Z,56.32
2022-09-09T07:19:01.653Z,57.54
2022-09-09T07:21:33.146Z,49.85
2022-09-09T07:24:00.983Z,51.47
2022-09-09T07:26:31.377Z,51.30
2022-09-09T07:29:01.021Z,52.46
2022-09-09T07:31:32.622Z,53.55
2022-09-09T07:34:01.752Z,54.73
2022-09-09T07:36:33.412Z,48.05
2022-09-09T07:39:05.511Z,49.04
2022-09-09T07:41:37.250Z,46.03
2022-09-09T07:44:07.737Z,46.25
2022-09-09T07:46:40.395Z,45.80
2022-09-09T07:49:10.768Z,47.41
2022-09-09T07:51:41.908Z,48.89
2022-09-09T07:54:13.399Z,47.18
2022-09-09T07:56:43.715Z,46.87
2022-09-09T07:59:13.143Z,45.42
2022-09-09T08:01:46.281Z,46.62
2022-09-09T08:04:19.162Z,43.91
2022-09-09T08:06:53.268Z,41.68
2022-09-09T08:09:25.370Z,43.41
2022-09-09T08:11:53.849Z,42.22
2022-09-09T08:14:21.697Z,47.27
2022-09-09T08:16:55.019Z,44.71
2022-09-09T08:19:24.622Z,42.17
2022-09-09T08:21:53.261Z,41.32
2022-09-09T08:24:24.221Z,46.83
2022-09-09T08:26:52.938Z,47.23
2022-09-09T08:29:24.444Z,47.69
2022-09-09T08:31:58.224Z,50.48
2022-09-09T08:34:31.500Z,54.72
2022-09-09T08:37:01.827Z,54.83
2022-09-09T08:39:35.237Z,49.05
2022-09-09T08:42:14.961Z,47.85
2022-09-09T08:45:06.447Z,46.93
2022-09-09T08:48:03.285Z,49.09
2022-09-09T08:50:36.499Z,48.63
2022-09-09T08:53:31.267Z,43.05
2022-09-09T08:56:02.785Z,46.89
2022-09-09T08:58:50.064Z,45.61
2022-09-09T09:02:01.230Z,49.48
2022-09-09T09:04:46.366Z,46.67
2022-09-09T09:07:43.542Z,51.71
2022-09-09T09:10:39.988Z,44.12
2022-09-09T09:13:05.139Z,50.12
2022-09-09T09:15:39.495Z,45.12
2022-09-09T09:18:13.953Z,46.47
2022-09-09T09:21:14.292Z,45.39
2022-09-09T09:24:21.018Z,53.30
2022-09-09T09:26:53.975Z,59.40
2022-09-09T09:29:22.786Z,54.16
2022-09-09T09:31:58.198Z,52.47
2022-09-09T09:34:27.918Z,46.73
2022-09-09T09:36:58.747Z,40.80
2022-09-09T09:42:27.456Z,41.82
2022-09-09T09:44:57.496Z,46.27
2022-09-09T09:47:25.334Z,43.79
2022-09-09T09:50:21.917Z,48.54
2022-09-09T09:53:03.192Z,50.64
2022-09-09T09:55:35.909Z,49.74
2022-09-09T09:58:08.275Z,48.06
2022-09-09T10:00:50.177Z,46.65
2022-09-09T10:03:30.634Z,49.80
2022-09-09T10:06:00.196Z,57.59
2022-09-09T10:08:28.768Z,75.09
2022-09-09T10:11:15.693Z,93.30
2022-09-09T10:13:56.748Z,100.00
2022-09-09T10:16:45.954Z,100.00
2022-09-09T10:19:29.809Z,100.00
2022-09-09T10:22:25.500Z,97.28
2022-09-09T10:25:41.826Z,99.36
2022-09-09T10:28:59.267Z,100.00
2022-09-09T10:31:54.675Z,97.79
2022-09-09T10:35:12.957Z,97.81
2022-09-09T10:37:59.463Z,96.88
2022-09-09T10:40:34.623Z,99.09
2022-09-09T10:43:14.165Z,100.00
2022-09-09T10:46:03.680Z,98.19
2022-09-09T10:49:00.169Z,97.18
2022-09-09T10:51:43.962Z,95.11
2022-09-09T10:54:26.984Z,94.85
2022-09-09T10:57:04.914Z,95.60
2022-09-09T10:59:41.963Z,95.87
2022-09-09T11:02:20.346Z,94.67
2022-09-09T11:05:20.961Z,94.23
2022-09-09T11:07:59.460Z,92.15
2022-09-09T11:10:46.180Z,92.20
2022-09-09T11:13:27.840Z,91.44
2022-09-09T11:16:03.884Z,88.67
2022-09-09T11:18:36.242Z,89.23
2022-09-09T11:21:08.599Z,89.13
2022-09-09T11:23:43.354Z,88.05
2022-09-09T11:26:19.938Z,89.48
2022-09-09T11:29:18.837Z,84.52
2022-09-09T11:31:55.160Z,80.76
2022-09-09T11:37:22.235Z,81.65
2022-09-09T11:55:48.929Z,73.04
2022-09-09T12:02:27.759Z,76.29
2022-09-09T12:08:11.541Z,71.09
